»·PEaware :: N90WE KBOI-KYKM

N90WE :: KBOI-KYKM

FLIGHT INFORMATION

Flight Status: Arrived
Operator: Privately registered:
United States
More flights under this callsign
Pilot: Anonymous 5456 (5456)
Aircraft: BEECH AIRCRAFT SUPER KING AIR COMMUTER
(BE20)
More flights by this aircraft type
Origin: KBOI Boise Air Terminal/Gowen
United States
Destination: KYKM Yakima Air Term/Mcallister
United States
More flights between these airports :: More routes between these airports
Route: +BOI3 LICKS BKE V4 YKM
File this flight plan on PilotEdge
Remarks:
Altitude:
(Current/Filed)
24,000ft
Speed:
(Current/Filed)
280kts
Departed: 14-Dec-17 09:28 AM
Arrived: 14-Dec-17 11:01 AM
Distance/Time
Traveled:
257nm/1:33
Distance/Time
To Go:
Arrived

Flight Plot

Page will automatically refresh every two minutes.

Flight plan parsing failed; only flown route is shown


Map Options




Map Legend


Flown Route
Filed Route
Departure Airport
Arrival Airport
Navaid (VOR, NDB)
Fix

Horizontal Profiles

Position Reports

Time Latitude Longitude Heading Altitude Ground
Speed
14-Dec-17 09:00 43.568986 -116.228049 185 2839ft 0kts
14-Dec-17 09:01 43.568986 -116.228049 185 2839ft 0kts
14-Dec-17 09:02 43.568986 -116.228049 185 2839ft 0kts
14-Dec-17 09:03 43.568986 -116.228049 185 2839ft 0kts
14-Dec-17 09:04 43.568986 -116.228049 185 2839ft 0kts
14-Dec-17 09:05 43.568986 -116.228049 185 2839ft 0kts
14-Dec-17 09:06 43.568986 -116.228049 185 2839ft 0kts
14-Dec-17 09:07 43.568986 -116.228049 185 2839ft 0kts
14-Dec-17 09:08 43.568986 -116.228049 185 2839ft 0kts
14-Dec-17 09:09 43.568986 -116.228049 185 2839ft 0kts
14-Dec-17 09:10 43.568986 -116.228049 185 2839ft 0kts
14-Dec-17 09:11 43.568986 -116.228049 185 2839ft 0kts
14-Dec-17 09:12 43.568986 -116.228049 185 2839ft 0kts
14-Dec-17 09:13 43.568986 -116.228049 185 2839ft 0kts
14-Dec-17 09:14 43.568986 -116.228049 185 2839ft 0kts
14-Dec-17 09:15 43.568986 -116.228049 185 2839ft 0kts
14-Dec-17 09:16 43.568986 -116.228049 185 2839ft 0kts
14-Dec-17 09:17 43.568986 -116.228049 185 2839ft 0kts
14-Dec-17 09:18 43.568986 -116.228049 185 2839ft 0kts
14-Dec-17 09:18 43.568986 -116.228049 185 2839ft 0kts
14-Dec-17 09:20 43.568986 -116.228049 185 2839ft 0kts
14-Dec-17 09:21 43.568986 -116.228049 185 2839ft 0kts
14-Dec-17 09:21 43.568986 -116.228049 185 2839ft 0kts
14-Dec-17 09:22 43.568986 -116.228049 185 2839ft 0kts
14-Dec-17 09:23 43.568986 -116.228049 185 2839ft 0kts
14-Dec-17 09:24 43.568986 -116.228049 185 2839ft 0kts
14-Dec-17 09:26 43.568986 -116.228049 185 2839ft 0kts
14-Dec-17 09:26 43.568986 -116.228049 185 2839ft 0kts
14-Dec-17 09:27 43.568986 -116.228049 185 2839ft 0kts
14-Dec-17 09:28 43.568986 -116.228049 185 2839ft 0kts
14-Dec-17 09:29 43.568986 -116.228049 185 2839ft 0kts
14-Dec-17 09:30 43.568986 -116.228049 185 2839ft 0kts
14-Dec-17 09:31 43.569955 -116.232643 296 2832ft 10kts
14-Dec-17 09:32 43.570278 -116.236573 162 2825ft 9kts
14-Dec-17 09:33 43.565914 -116.224538 116 3005ft 100kts
14-Dec-17 09:34 43.549703 -116.179883 122 4284ft 182kts
14-Dec-17 09:35 43.526949 -116.112017 94 6428ft 197kts
14-Dec-17 09:36 43.559626 -116.066415 30 8513ft 199kts
14-Dec-17 09:37 43.617393 -116.046078 320 8596ft 239kts
14-Dec-17 09:39 43.640724 -116.092221 308 9619ft 219kts
14-Dec-17 09:40 43.677940 -116.145334 318 12286ft 176kts
14-Dec-17 09:41 43.707409 -116.183559 320 14446ft 133kts
14-Dec-17 09:42 43.738515 -116.223454 320 15128ft 170kts
14-Dec-17 09:43 43.739541 -116.224775 320 15147ft 171kts
14-Dec-17 09:44 43.760535 -116.252015 320 15514ft 188kts
14-Dec-17 09:45 43.800934 -116.304689 319 16130ft 210kts
14-Dec-17 09:46 43.842736 -116.359011 320 16700ft 218kts
14-Dec-17 09:47 43.886781 -116.416294 320 17278ft 219kts
14-Dec-17 09:48 43.930830 -116.473707 320 17850ft 218kts
14-Dec-17 09:49 43.974628 -116.530791 321 18422ft 219kts
14-Dec-17 09:50 44.018464 -116.587764 321 19354ft 217kts
14-Dec-17 09:51 44.060200 -116.642468 321 20274ft 213kts
14-Dec-17 09:52 44.101122 -116.696270 321 21196ft 209kts
14-Dec-17 09:53 44.139447 -116.751289 319 22175ft 204kts
14-Dec-17 09:54 44.177122 -116.807061 319 23177ft 198kts
14-Dec-17 09:55 44.213909 -116.861655 320 24185ft 191kts
14-Dec-17 09:56 44.251711 -116.917574 319 24458ft 212kts
14-Dec-17 09:57 44.291719 -116.977154 318 24629ft 223kts
14-Dec-17 09:58 44.334163 -117.040545 318 24626ft 228kts
14-Dec-17 09:59 44.377294 -117.105078 317 24625ft 231kts
14-Dec-17 10:00 44.420851 -117.170442 317 24614ft 233kts
14-Dec-17 10:01 44.464611 -117.236236 317 24582ft 234kts
14-Dec-17 10:02 44.508463 -117.302316 317 24545ft 235kts
14-Dec-17 10:03 44.552346 -117.368590 317 24515ft 235kts
14-Dec-17 10:04 44.596216 -117.435013 317 24513ft 234kts
14-Dec-17 10:05 44.639932 -117.501344 317 24512ft 234kts
14-Dec-17 10:06 44.682070 -117.565449 317 24512ft 234kts
14-Dec-17 10:07 44.725629 -117.631858 317 24511ft 234kts
14-Dec-17 10:08 44.768198 -117.696929 316 24512ft 234kts
14-Dec-17 10:09 44.811806 -117.763730 316 24512ft 234kts
14-Dec-17 10:10 44.853642 -117.824726 321 24511ft 232kts
14-Dec-17 10:11 44.900720 -117.885587 321 24511ft 232kts
14-Dec-17 10:12 44.947682 -117.946439 321 24510ft 232kts
14-Dec-17 10:13 44.994624 -118.007286 320 24512ft 232kts
14-Dec-17 10:14 45.041270 -118.067941 319 24514ft 230kts
14-Dec-17 10:15 45.087506 -118.128244 318 24516ft 228kts
14-Dec-17 10:16 45.130215 -118.184099 317 24525ft 228kts
14-Dec-17 10:17 45.175501 -118.243583 317 24525ft 229kts
14-Dec-17 10:18 45.220754 -118.303030 317 24524ft 229kts
14-Dec-17 10:19 45.266776 -118.363618 317 24533ft 228kts
14-Dec-17 10:20 45.312816 -118.424355 317 24552ft 228kts
14-Dec-17 10:21 45.358745 -118.485107 317 24570ft 227kts
14-Dec-17 10:22 45.403562 -118.544506 317 24588ft 227kts
14-Dec-17 10:23 45.449311 -118.605283 317 24594ft 227kts
14-Dec-17 10:24 45.491056 -118.660878 316 24598ft 228kts
14-Dec-17 10:25 45.537091 -118.722311 316 24598ft 228kts
14-Dec-17 10:26 45.582430 -118.782952 316 24597ft 229kts
14-Dec-17 10:27 45.628290 -118.844414 316 24596ft 229kts
14-Dec-17 10:28 45.674112 -118.905975 316 24596ft 229kts
14-Dec-17 10:29 45.717612 -118.971163 310 24595ft 229kts
14-Dec-17 10:30 45.758547 -119.040000 310 24595ft 230kts
14-Dec-17 10:31 45.799396 -119.109039 310 24613ft 229kts
14-Dec-17 10:32 45.840134 -119.178049 310 24628ft 229kts
14-Dec-17 10:33 45.880960 -119.247362 310 24637ft 229kts
14-Dec-17 10:34 45.921657 -119.316636 310 24638ft 230kts
14-Dec-17 10:35 45.962679 -119.386642 310 24264ft 244kts
14-Dec-17 10:36 46.008089 -119.464349 310 22868ft 259kts
14-Dec-17 10:37 46.052180 -119.539991 309 21489ft 256kts
14-Dec-17 10:38 46.097223 -119.617501 309 20073ft 256kts
14-Dec-17 10:39 46.139179 -119.689894 308 18791ft 257kts
14-Dec-17 10:40 46.184603 -119.768467 308 17418ft 258kts
14-Dec-17 10:41 46.229880 -119.847021 308 15918ft 263kts
14-Dec-17 10:42 46.275640 -119.926635 308 14316ft 267kts
14-Dec-17 10:43 46.322154 -120.007755 308 12559ft 269kts
14-Dec-17 10:44 46.366688 -120.085707 309 11026ft 244kts
14-Dec-17 10:45 46.405009 -120.152881 309 10997ft 204kts
14-Dec-17 10:46 46.439582 -120.213803 311 10105ft 201kts
14-Dec-17 10:47 46.489989 -120.208381 15 8128ft 193kts
14-Dec-17 10:48 46.538960 -120.196398 322 6159ft 184kts
14-Dec-17 10:49 46.535628 -120.251916 237 4591ft 150kts
14-Dec-17 10:50 46.515190 -120.300027 254 4289ft 152kts
14-Dec-17 10:51 46.490707 -120.332130 154 3849ft 143kts
14-Dec-17 10:52 46.459380 -120.290356 135 3963ft 160kts
14-Dec-17 10:53 46.445488 -120.243469 38 3737ft 122kts
14-Dec-17 10:54 46.477655 -120.238605 17 3841ft 123kts
14-Dec-17 10:55 46.502572 -120.203035 7 4305ft 121kts
14-Dec-17 10:56 46.512977 -120.236970 218 4688ft 148kts
14-Dec-17 10:57 46.473789 -120.245016 185 4702ft 146kts
14-Dec-17 10:58 46.441723 -120.207650 115 4956ft 170kts
14-Dec-17 10:59 46.460992 -120.188938 326 4794ft 138kts
14-Dec-17 11:00 46.487163 -120.222216 294 4298ft 120kts
14-Dec-17 11:01 46.500772 -120.275290 291 4196ft 148kts
14-Dec-17 11:02 46.514693 -120.330116 291 3951ft 142kts
14-Dec-17 11:03 46.527716 -120.381518 291 3253ft 141kts
14-Dec-17 11:04 46.541310 -120.435400 290 2469ft 129kts
14-Dec-17 11:05 46.553706 -120.484537 290 1790ft 131kts
14-Dec-17 11:06 46.564270 -120.526634 293 1160ft 100kts
14-Dec-17 11:07 46.569013 -120.542137 23 1071ft 5kts
14-Dec-17 11:08 46.569546 -120.541789 8 1071ft 5kts

Navigation Log

Ident Type
Flight plan parsing failed, navigation log unavailable